createdAt,value
2019-02-26T00:00:14.424Z,96.48
2019-02-26T00:01:14.408Z,96.56
2019-02-26T00:02:11.667Z,96.52
2019-02-26T00:03:12.115Z,96.52
2019-02-26T00:04:12.586Z,96.56
2019-02-26T00:05:13.060Z,96.53
2019-02-26T00:06:16.182Z,96.52
2019-02-26T00:07:16.235Z,96.51
2019-02-26T00:08:14.553Z,96.55
2019-02-26T00:09:18.187Z,96.55
2019-02-26T00:10:15.418Z,96.51
2019-02-26T00:11:15.889Z,96.52
2019-02-26T00:12:19.959Z,96.54
2019-02-26T00:13:16.835Z,96.48
2019-02-26T00:14:17.826Z,96.56
2019-02-26T00:15:17.781Z,96.51
2019-02-26T00:16:20.382Z,96.55
2019-02-26T00:17:19.594Z,96.52
2019-02-26T00:18:21.367Z,96.55
2019-02-26T00:19:19.667Z,96.56
2019-02-26T00:20:20.141Z,96.55
2019-02-26T00:21:22.686Z,96.55
2019-02-26T00:22:21.081Z,96.51
2019-02-26T00:23:23.277Z,96.55
2019-02-26T00:24:22.025Z,96.52
2019-02-26T00:25:22.499Z,96.55
2019-02-26T00:26:22.975Z,96.51
2019-02-26T00:27:25.663Z,96.53
2019-02-26T00:28:23.915Z,96.51
2019-02-26T00:29:25.430Z,96.51
2019-02-26T00:30:24.859Z,96.51
2019-02-26T00:31:26.119Z,96.52
2019-02-26T00:32:25.851Z,96.51
2019-02-26T00:33:27.293Z,96.51
2019-02-26T00:34:26.747Z,96.51
2019-02-26T00:35:27.751Z,96.48
2019-02-26T00:36:29.261Z,96.51
2019-02-26T00:37:29.087Z,96.52
2019-02-26T00:38:28.633Z,96.48
2019-02-26T00:39:31.274Z,96.55
2019-02-26T00:40:29.580Z,96.51
2019-02-26T00:41:31.837Z,96.52
2019-02-26T00:42:32.077Z,96.51
2019-02-26T00:43:32.385Z,96.50
2019-02-26T00:44:32.720Z,96.51
2019-02-26T00:45:33.997Z,96.47
2019-02-26T00:46:33.027Z,96.47
2019-02-26T00:47:34.460Z,96.51
2019-02-26T00:48:33.718Z,96.52
2019-02-26T00:49:33.831Z,96.48
2019-02-26T00:50:35.533Z,96.50
2019-02-26T00:51:34.772Z,96.50
2019-02-26T00:52:37.041Z,96.50
2019-02-26T00:53:35.716Z,96.47
2019-02-26T00:54:36.635Z,96.51
2019-02-26T00:55:39.167Z,96.50
2019-02-26T00:56:38.636Z,96.43
2019-02-26T00:57:38.808Z,96.46
2019-02-26T00:58:39.309Z,96.46
2019-02-26T00:59:40.745Z,96.50
2019-02-26T01:00:39.024Z,96.50
2019-02-26T01:01:39.492Z,96.50
2019-02-26T01:02:39.963Z,96.50
2019-02-26T01:03:42.486Z,96.49
2019-02-26T01:04:41.492Z,96.46
2019-02-26T01:05:43.131Z,96.53
2019-02-26T01:06:41.855Z,96.45
2019-02-26T01:07:44.264Z,96.49
2019-02-26T01:08:44.743Z,96.46
2019-02-26T01:09:43.276Z,96.52
2019-02-26T01:10:45.726Z,96.47
2019-02-26T01:11:45.270Z,96.49
2019-02-26T01:12:44.688Z,96.49
2019-02-26T01:13:45.156Z,96.53
2019-02-26T01:14:46.339Z,96.45
2019-02-26T01:15:46.100Z,96.48
2019-02-26T01:16:48.243Z,96.44
2019-02-26T01:17:47.046Z,96.49
2019-02-26T01:18:49.378Z,96.49
2019-02-26T01:19:47.987Z,96.49
2019-02-26T01:20:52.258Z,96.47
2019-02-26T01:21:48.933Z,96.48
2019-02-26T01:22:49.416Z,96.46
2019-02-26T01:23:49.878Z,96.45
2019-02-26T01:24:51.874Z,96.45
2019-02-26T01:25:54.183Z,96.45
2019-02-26T01:26:51.292Z,96.48
2019-02-26T01:27:53.140Z,96.47
2019-02-26T01:28:53.731Z,96.45
2019-02-26T01:29:53.530Z,96.45
2019-02-26T01:30:55.582Z,96.52
2019-02-26T01:31:53.656Z,96.45
2019-02-26T01:32:57.543Z,96.48
2019-02-26T01:33:55.309Z,96.46
2019-02-26T01:34:55.071Z,96.49
2019-02-26T01:35:57.615Z,96.48
2019-02-26T01:36:56.016Z,96.49
2019-02-26T01:37:58.107Z,96.48
2019-02-26T01:38:56.956Z,96.44
2019-02-26T01:39:57.429Z,96.49
2019-02-26T01:40:57.909Z,96.45
2019-02-26T01:41:58.816Z,96.44
2019-02-26T01:43:01.081Z,96.47
2019-02-26T01:43:59.317Z,96.46
2019-02-26T01:44:59.791Z,96.48
2019-02-26T01:46:00.263Z,96.45
2019-02-26T01:47:02.598Z,96.45
2019-02-26T01:48:01.205Z,96.46
2019-02-26T01:49:02.101Z,96.44
2019-02-26T01:50:04.066Z,96.45
2019-02-26T01:51:03.406Z,96.46
2019-02-26T01:52:03.098Z,96.44
2019-02-26T01:53:03.570Z,96.44
2019-02-26T01:54:05.274Z,96.43
2019-02-26T01:55:04.513Z,96.47
2019-02-26T01:56:05.252Z,96.44
2019-02-26T01:57:08.625Z,96.47
2019-02-26T01:58:05.927Z,96.47
2019-02-26T01:59:06.398Z,96.44
2019-02-26T02:00:07.007Z,96.46
2019-02-26T02:01:09.531Z,96.44
2019-02-26T02:02:12.257Z,96.44
2019-02-26T02:03:08.289Z,96.46
2019-02-26T02:04:10.628Z,96.44
2019-02-26T02:05:09.234Z,96.43
2019-02-26T02:06:11.801Z,96.45
2019-02-26T02:07:10.174Z,96.40
2019-02-26T02:08:13.133Z,96.45
2019-02-26T02:09:13.331Z,96.48
2019-02-26T02:10:11.591Z,96.44
2019-02-26T02:11:12.064Z,96.43
2019-02-26T02:12:12.534Z,96.43
2019-02-26T02:13:13.005Z,96.40
2019-02-26T02:14:15.409Z,96.43
2019-02-26T02:15:17.404Z,96.43
2019-02-26T02:16:14.423Z,96.42
2019-02-26T02:17:14.895Z,96.42
2019-02-26T02:18:15.367Z,96.43
2019-02-26T02:19:20.075Z,96.39
2019-02-26T02:20:19.416Z,96.42
2019-02-26T02:21:16.783Z,96.43
2019-02-26T02:22:18.986Z,96.41
2019-02-26T02:23:19.369Z,96.43
2019-02-26T02:24:20.093Z,96.44
2019-02-26T02:25:18.670Z,96.42
2019-02-26T02:26:19.144Z,96.43
2019-02-26T02:27:21.968Z,96.42
2019-02-26T02:28:22.201Z,96.43
2019-02-26T02:29:21.748Z,96.46
2019-02-26T02:30:26.854Z,96.43
2019-02-26T02:31:24.318Z,96.43
2019-02-26T02:32:24.139Z,96.43
2019-02-26T02:33:24.223Z,96.43
2019-02-26T02:34:23.706Z,96.46
2019-02-26T02:35:23.389Z,96.43
2019-02-26T02:36:26.427Z,96.43
2019-02-26T02:37:26.796Z,96.46
2019-02-26T02:38:24.807Z,96.42
2019-02-26T02:39:26.551Z,96.43
2019-02-26T02:40:25.750Z,96.43
2019-02-26T02:41:26.223Z,96.42
2019-02-26T02:42:26.696Z,96.42
2019-02-26T02:43:27.168Z,96.46
2019-02-26T02:44:27.638Z,96.42
2019-02-26T02:45:28.112Z,96.46
2019-02-26T02:46:28.585Z,96.42
2019-02-26T02:47:31.606Z,96.42
2019-02-26T02:48:29.525Z,96.36
2019-02-26T02:49:32.553Z,96.44
2019-02-26T02:50:30.469Z,96.46
2019-02-26T02:51:31.511Z,96.42
2019-02-26T02:52:33.154Z,96.43
2019-02-26T02:53:32.337Z,96.46
2019-02-26T02:54:32.361Z,96.43
2019-02-26T02:55:32.828Z,96.39
2019-02-26T02:56:34.235Z,96.43
2019-02-26T02:57:34.439Z,96.43
2019-02-26T02:58:34.246Z,96.42
2019-02-26T02:59:36.769Z,96.39
2019-02-26T03:00:35.190Z,96.44
2019-02-26T03:01:35.661Z,96.42
2019-02-26T03:02:40.559Z,96.43
2019-02-26T03:03:36.605Z,96.47
2019-02-26T03:04:37.079Z,96.47
2019-02-26T03:05:40.595Z,96.43
2019-02-26T03:06:38.664Z,96.46
2019-02-26T03:07:38.493Z,96.43
2019-02-26T03:08:39.520Z,96.43
2019-02-26T03:09:40.631Z,96.46
2019-02-26T03:10:42.353Z,96.43
2019-02-26T03:11:42.002Z,96.42
2019-02-26T03:12:43.953Z,96.43
2019-02-26T03:13:43.140Z,96.43
2019-02-26T03:14:42.471Z,96.46
2019-02-26T03:15:42.269Z,96.44
2019-02-26T03:16:44.631Z,96.44
2019-02-26T03:17:43.219Z,96.43
2019-02-26T03:18:43.685Z,96.41
2019-02-26T03:19:44.159Z,96.44
2019-02-26T03:20:44.643Z,96.44
2019-02-26T03:21:47.113Z,96.41
2019-02-26T03:22:48.923Z,96.44
2019-02-26T03:23:46.069Z,96.41
2019-02-26T03:24:48.354Z,96.44
2019-02-26T03:25:47.856Z,96.45
2019-02-26T03:26:47.461Z,96.41
2019-02-26T03:27:47.937Z,96.41
2019-02-26T03:28:50.811Z,96.44
2019-02-26T03:29:49.929Z,96.38
2019-02-26T03:30:49.351Z,96.45
2019-02-26T03:31:54.699Z,96.45
2019-02-26T03:32:55.950Z,96.44
2019-02-26T03:33:50.769Z,96.45
2019-02-26T03:34:51.237Z,96.41
2019-02-26T03:35:51.708Z,96.45
2019-02-26T03:36:52.181Z,96.45
2019-02-26T03:37:55.580Z,96.49
2019-02-26T03:38:54.781Z,96.45
2019-02-26T03:39:55.229Z,96.41
2019-02-26T03:40:55.536Z,96.45
2019-02-26T03:41:56.447Z,96.43
2019-02-26T03:42:55.013Z,96.46
2019-02-26T03:43:58.451Z,96.49
2019-02-26T03:44:55.955Z,96.46
2019-02-26T03:45:56.428Z,96.44
2019-02-26T03:46:56.904Z,96.42
2019-02-26T03:47:58.058Z,96.46
2019-02-26T03:49:02.474Z,96.46
2019-02-26T03:49:58.317Z,96.46
2019-02-26T03:51:01.276Z,96.46
2019-02-26T03:52:00.175Z,96.43
2019-02-26T03:52:59.734Z,96.41
2019-02-26T03:54:00.203Z,96.46
2019-02-26T03:55:03.220Z,96.43
2019-02-26T03:56:04.314Z,96.46
2019-02-26T03:57:01.624Z,96.46
2019-02-26T03:58:02.299Z,96.39
2019-02-26T03:59:03.988Z,96.48
2019-02-26T04:00:05.627Z,96.46
2019-02-26T04:01:07.313Z,96.46
2019-02-26T04:02:03.980Z,96.50
2019-02-26T04:03:05.959Z,96.47
2019-02-26T04:04:07.419Z,96.46
2019-02-26T04:05:06.876Z,96.47
2019-02-26T04:06:07.508Z,96.43
2019-02-26T04:07:09.924Z,96.43
2019-02-26T04:08:06.810Z,96.47
2019-02-26T04:09:08.508Z,96.43
2019-02-26T04:10:07.759Z,96.44
2019-02-26T04:11:08.228Z,96.39
2019-02-26T04:12:11.267Z,96.45
2019-02-26T04:13:09.173Z,96.44
2019-02-26T04:14:12.588Z,96.43
2019-02-26T04:15:10.115Z,96.47
2019-02-26T04:16:10.586Z,96.44
2019-02-26T04:17:11.058Z,96.44
2019-02-26T04:18:11.528Z,96.43
2019-02-26T04:19:12.002Z,96.44
2019-02-26T04:20:12.473Z,96.47
2019-02-26T04:21:15.159Z,96.45
2019-02-26T04:22:15.309Z,96.43
2019-02-26T04:23:16.555Z,96.46
2019-02-26T04:24:14.360Z,96.46
2019-02-26T04:25:14.833Z,96.46
2019-02-26T04:26:18.557Z,96.48
2019-02-26T04:27:15.776Z,96.45
2019-02-26T04:28:16.250Z,96.44
2019-02-26T04:29:16.773Z,96.49
2019-02-26T04:30:19.022Z,96.44
2019-02-26T04:31:17.666Z,96.49
2019-02-26T04:32:18.970Z,96.46
2019-02-26T04:33:18.613Z,96.45
2019-02-26T04:34:19.081Z,96.49
2019-02-26T04:35:19.555Z,96.49
2019-02-26T04:36:22.205Z,96.49
2019-02-26T04:37:20.497Z,96.49
2019-02-26T04:38:23.203Z,96.48
2019-02-26T04:39:22.365Z,96.42
2019-02-26T04:40:21.913Z,96.48
2019-02-26T04:41:22.385Z,96.48
2019-02-26T04:42:22.858Z,96.49
2019-02-26T04:43:25.294Z,96.49
2019-02-26T04:44:26.265Z,96.45
2019-02-26T04:45:24.277Z,96.46
2019-02-26T04:46:25.608Z,96.46
2019-02-26T04:47:26.934Z,96.42
2019-02-26T04:48:26.965Z,96.45
2019-02-26T04:49:28.102Z,96.49
2019-02-26T04:50:28.988Z,96.52
2019-02-26T04:51:27.104Z,96.52
2019-02-26T04:52:29.375Z,96.48
2019-02-26T04:53:28.726Z,96.45
2019-02-26T04:54:31.185Z,96.45
2019-02-26T04:55:29.735Z,96.44
2019-02-26T04:56:33.473Z,96.45
2019-02-26T04:57:29.936Z,96.47
2019-02-26T04:58:30.409Z,96.45
2019-02-26T04:59:32.454Z,96.49
2019-02-26T05:00:33.727Z,96.42
2019-02-26T05:01:31.823Z,96.46
2019-02-26T05:02:32.295Z,96.46
2019-02-26T05:03:32.770Z,96.49
2019-02-26T05:04:34.036Z,96.46
2019-02-26T05:05:36.526Z,96.50
2019-02-26T05:06:34.183Z,96.46
2019-02-26T05:07:35.616Z,96.42
2019-02-26T05:08:37.583Z,96.48
2019-02-26T05:09:35.719Z,96.48
2019-02-26T05:10:36.071Z,96.48
2019-02-26T05:11:40.334Z,96.41
2019-02-26T05:12:39.949Z,96.49
2019-02-26T05:13:37.485Z,96.46
2019-02-26T05:14:37.959Z,96.52
2019-02-26T05:15:38.466Z,96.45
2019-02-26T05:16:40.337Z,96.46
2019-02-26T05:17:39.372Z,96.46
2019-02-26T05:18:39.845Z,96.45
2019-02-26T05:19:42.574Z,96.45
2019-02-26T05:20:43.020Z,96.45
2019-02-26T05:21:41.260Z,96.41
2019-02-26T05:22:41.731Z,96.48
2019-02-26T05:23:42.205Z,96.48
2019-02-26T05:24:44.815Z,96.49
2019-02-26T05:25:44.847Z,96.41
2019-02-26T05:26:43.625Z,96.48
2019-02-26T05:27:46.175Z,96.45
2019-02-26T05:28:47.042Z,96.43
2019-02-26T05:29:46.634Z,96.44
2019-02-26T05:30:46.476Z,96.45
2019-02-26T05:31:45.977Z,96.45
2019-02-26T05:32:46.449Z,96.48
2019-02-26T05:33:49.564Z,96.46
2019-02-26T05:34:50.153Z,96.48
2019-02-26T05:35:48.982Z,96.44
2019-02-26T05:36:48.345Z,96.48
2019-02-26T05:37:48.809Z,96.49
2019-02-26T05:38:51.682Z,96.48
2019-02-26T05:39:51.551Z,96.44
2019-02-26T05:40:53.095Z,96.43
2019-02-26T05:41:53.072Z,96.48
2019-02-26T05:42:53.250Z,96.43
2019-02-26T05:43:55.295Z,96.46
2019-02-26T05:44:54.510Z,96.45
2019-02-26T05:45:54.856Z,96.46
2019-02-26T05:46:54.220Z,96.45
2019-02-26T05:47:58.545Z,96.43
2019-02-26T05:48:54.002Z,96.43
2019-02-26T05:49:54.531Z,96.47
2019-02-26T05:50:54.945Z,96.43
2019-02-26T05:51:56.727Z,96.38
2019-02-26T05:52:57.956Z,96.46
2019-02-26T05:53:56.360Z,96.45
2019-02-26T05:54:56.869Z,96.45
2019-02-26T05:55:57.304Z,96.43
2019-02-26T05:56:57.777Z,96.48
2019-02-26T05:57:58.250Z,96.38
2019-02-26T05:59:02.093Z,96.43
2019-02-26T05:59:59.191Z,96.39
2019-02-26T06:00:59.663Z,96.42
2019-02-26T06:02:00.135Z,96.43
2019-02-26T06:03:00.642Z,96.43
2019-02-26T06:04:04.077Z,96.46
2019-02-26T06:05:01.551Z,96.46
2019-02-26T06:06:02.024Z,96.46
2019-02-26T06:07:04.582Z,96.45
2019-02-26T06:08:02.972Z,96.42
2019-02-26T06:09:05.597Z,96.43
2019-02-26T06:10:03.910Z,96.45
2019-02-26T06:11:04.384Z,96.46
2019-02-26T06:12:04.856Z,96.46
2019-02-26T06:13:07.419Z,96.44
2019-02-26T06:14:09.501Z,96.43
2019-02-26T06:15:08.031Z,96.42
2019-02-26T06:16:07.550Z,96.45
2019-02-26T06:17:07.750Z,96.46
2019-02-26T06:18:07.687Z,96.39
2019-02-26T06:19:08.502Z,96.43
2019-02-26T06:20:10.862Z,96.43
2019-02-26T06:21:09.101Z,96.43
2019-02-26T06:22:14.470Z,96.39
2019-02-26T06:23:10.052Z,96.42
2019-02-26T06:24:10.519Z,96.46
2019-02-26T06:25:18.343Z,96.44
2019-02-26T06:26:14.884Z,96.46
2019-02-26T06:27:13.810Z,96.43
2019-02-26T06:28:13.592Z,96.46
2019-02-26T06:29:12.880Z,96.44
2019-02-26T06:30:13.349Z,96.43
2019-02-26T06:31:16.286Z,96.46
2019-02-26T06:32:14.293Z,96.45
2019-02-26T06:33:16.403Z,96.46
2019-02-26T06:34:16.313Z,96.43
2019-02-26T06:35:16.482Z,96.43
2019-02-26T06:36:17.938Z,96.43
2019-02-26T06:37:16.735Z,96.43
2019-02-26T06:38:17.127Z,96.40
2019-02-26T06:39:20.204Z,96.43
2019-02-26T06:40:18.087Z,96.43
2019-02-26T06:41:18.540Z,96.43
2019-02-26T06:42:19.016Z,96.44
2019-02-26T06:43:19.486Z,96.47
2019-02-26T06:44:19.957Z,96.48
2019-02-26T06:45:20.427Z,96.45
2019-02-26T06:46:20.902Z,96.47
2019-02-26T06:47:23.405Z,96.41
2019-02-26T06:48:24.596Z,96.45
2019-02-26T06:49:24.169Z,96.48
2019-02-26T06:50:22.788Z,96.48
2019-02-26T06:51:24.308Z,96.50
2019-02-26T06:52:23.731Z,96.45
2019-02-26T06:53:24.203Z,96.45
2019-02-26T06:54:26.642Z,96.46
2019-02-26T06:55:25.147Z,96.45
2019-02-26T06:56:25.620Z,96.49
2019-02-26T06:57:26.089Z,96.45
2019-02-26T06:58:26.564Z,96.49
2019-02-26T06:59:27.752Z,96.49
2019-02-26T07:00:29.312Z,96.45
2019-02-26T07:01:27.979Z,96.49
2019-02-26T07:02:29.120Z,96.51
2019-02-26T07:03:28.925Z,96.48
2019-02-26T07:04:30.056Z,96.46
2019-02-26T07:05:29.874Z,96.43
2019-02-26T07:06:32.525Z,96.50
2019-02-26T07:07:30.809Z,96.46
2019-02-26T07:08:31.282Z,96.50
2019-02-26T07:09:32.363Z,96.46
2019-02-26T07:10:33.712Z,96.47
2019-02-26T07:11:33.652Z,96.46
2019-02-26T07:12:33.172Z,96.49
2019-02-26T07:13:34.288Z,96.47
2019-02-26T07:14:34.524Z,96.47
2019-02-26T07:15:34.585Z,96.47
2019-02-26T07:16:35.055Z,96.47
2019-02-26T07:17:36.083Z,96.47
2019-02-26T07:18:35.998Z,96.47
2019-02-26T07:19:38.144Z,96.47
2019-02-26T07:20:39.956Z,96.48
2019-02-26T07:21:37.995Z,96.47
2019-02-26T07:22:39.835Z,96.51
2019-02-26T07:23:39.998Z,96.47
2019-02-26T07:24:40.818Z,96.47
2019-02-26T07:25:41.476Z,96.49
2019-02-26T07:26:41.756Z,96.47
2019-02-26T07:27:40.251Z,96.51
2019-02-26T07:28:41.553Z,96.51
2019-02-26T07:29:44.371Z,96.48
2019-02-26T07:30:44.146Z,96.43
2019-02-26T07:31:42.136Z,96.48
2019-02-26T07:32:45.125Z,96.49
2019-02-26T07:33:43.076Z,96.52
2019-02-26T07:34:45.198Z,96.48
2019-02-26T07:35:44.071Z,96.51
2019-02-26T07:36:45.697Z,96.55
2019-02-26T07:37:44.969Z,96.48
2019-02-26T07:38:48.524Z,96.51
2019-02-26T07:39:47.316Z,96.44
2019-02-26T07:40:46.430Z,96.46
2019-02-26T07:41:47.516Z,96.48
2019-02-26T07:42:49.265Z,96.47
2019-02-26T07:43:49.297Z,96.52
2019-02-26T07:44:48.266Z,96.45
2019-02-26T07:45:48.741Z,96.51
2019-02-26T07:46:49.210Z,96.48
2019-02-26T07:47:51.483Z,96.48
2019-02-26T07:48:53.604Z,96.51
2019-02-26T07:49:50.626Z,96.51
2019-02-26T07:50:51.095Z,96.52
2019-02-26T07:51:51.568Z,96.49
2019-02-26T07:52:52.628Z,96.50
2019-02-26T07:53:54.305Z,96.52
2019-02-26T07:54:52.982Z,96.48
2019-02-26T07:55:53.457Z,96.52
2019-02-26T07:56:55.144Z,96.48
2019-02-26T07:57:54.399Z,96.52
2019-02-26T07:58:56.917Z,96.52
2019-02-26T07:59:55.342Z,96.48
2019-02-26T08:00:55.815Z,96.48
2019-02-26T08:01:56.286Z,96.50
2019-02-26T08:02:58.025Z,96.52
2019-02-26T08:03:57.230Z,96.48
2019-02-26T08:04:57.704Z,96.51
2019-02-26T08:05:59.432Z,96.52
2019-02-26T08:06:59.580Z,96.52
2019-02-26T08:07:59.122Z,96.48
2019-02-26T08:08:59.589Z,96.45
2019-02-26T08:10:00.066Z,96.45
2019-02-26T08:11:00.531Z,96.49
2019-02-26T08:12:02.012Z,96.49
2019-02-26T08:13:03.270Z,96.48
2019-02-26T08:14:01.947Z,96.56
2019-02-26T08:15:04.587Z,96.53
2019-02-26T08:16:04.897Z,96.48
2019-02-26T08:17:03.937Z,96.49
2019-02-26T08:18:05.338Z,96.49
2019-02-26T08:19:04.309Z,96.47
2019-02-26T08:20:07.447Z,96.49
2019-02-26T08:21:05.262Z,96.49
2019-02-26T08:22:05.727Z,96.49
2019-02-26T08:23:06.192Z,96.51
2019-02-26T08:24:06.663Z,96.49
2019-02-26T08:25:07.138Z,96.57
2019-02-26T08:26:07.609Z,96.50
2019-02-26T08:27:09.361Z,96.53
2019-02-26T08:28:08.551Z,96.46
2019-02-26T08:29:09.940Z,96.54
2019-02-26T08:30:09.500Z,96.54
2019-02-26T08:31:13.343Z,96.50
2019-02-26T08:32:13.774Z,96.53
2019-02-26T08:33:10.912Z,96.54
2019-02-26T08:34:13.533Z,96.50
2019-02-26T08:35:11.855Z,96.50
2019-02-26T08:36:14.100Z,96.50
2019-02-26T08:37:12.798Z,96.51
2019-02-26T08:38:13.270Z,96.54
2019-02-26T08:39:15.624Z,96.47
2019-02-26T08:40:14.215Z,96.49
2019-02-26T08:41:14.687Z,96.51
2019-02-26T08:42:15.157Z,96.51
2019-02-26T08:43:15.832Z,96.51
2019-02-26T08:44:16.101Z,96.55
2019-02-26T08:45:17.822Z,96.55
2019-02-26T08:46:18.571Z,96.51
2019-02-26T08:47:19.130Z,96.57
2019-02-26T08:48:20.516Z,96.51
2019-02-26T08:49:20.241Z,96.60
2019-02-26T08:50:18.932Z,96.52
2019-02-26T08:51:21.453Z,96.48
2019-02-26T08:52:22.128Z,96.52
2019-02-26T08:53:21.947Z,96.56
2019-02-26T08:54:23.711Z,96.52
2019-02-26T08:55:23.958Z,96.48
2019-02-26T08:56:23.919Z,96.52
2019-02-26T08:57:22.235Z,96.55
2019-02-26T08:58:23.525Z,96.52
2019-02-26T08:59:23.178Z,96.55
2019-02-26T09:00:23.649Z,96.57
2019-02-26T09:01:24.122Z,96.52
2019-02-26T09:02:24.593Z,96.57
2019-02-26T09:03:25.071Z,96.54
2019-02-26T09:04:25.544Z,96.54
2019-02-26T09:05:28.253Z,96.57
2019-02-26T09:06:26.993Z,96.54
2019-02-26T09:07:26.952Z,96.57
2019-02-26T09:08:27.443Z,96.58
2019-02-26T09:09:30.045Z,96.58
2019-02-26T09:10:28.369Z,96.58
2019-02-26T09:11:31.199Z,96.54
2019-02-26T09:12:29.691Z,96.61
2019-02-26T09:13:31.635Z,96.54
2019-02-26T09:14:34.511Z,96.56
2019-02-26T09:15:31.274Z,96.58
2019-02-26T09:16:32.816Z,96.58
2019-02-26T09:17:32.500Z,96.55
2019-02-26T09:18:35.504Z,96.55
2019-02-26T09:19:33.656Z,96.55
2019-02-26T09:20:33.091Z,96.51
2019-02-26T09:21:34.736Z,96.57
2019-02-26T09:22:34.032Z,96.55
2019-02-26T09:23:34.504Z,96.55
2019-02-26T09:24:34.975Z,96.54
2019-02-26T09:25:35.448Z,96.56
2019-02-26T09:26:35.921Z,96.55
2019-02-26T09:27:42.553Z,96.54
2019-02-26T09:28:36.863Z,96.58
2019-02-26T09:29:39.240Z,96.56
2019-02-26T09:30:38.854Z,96.56
2019-02-26T09:31:38.282Z,96.57
2019-02-26T09:32:40.236Z,96.57
2019-02-26T09:33:40.903Z,96.56
2019-02-26T09:34:39.977Z,96.60
2019-02-26T09:35:40.166Z,96.60
2019-02-26T09:36:40.639Z,96.60
2019-02-26T09:37:42.835Z,96.57
2019-02-26T09:38:41.967Z,96.57
2019-02-26T09:39:42.054Z,96.58
2019-02-26T09:40:42.563Z,96.57
2019-02-26T09:41:45.425Z,96.60
2019-02-26T09:42:43.896Z,96.60
2019-02-26T09:43:45.788Z,96.63
2019-02-26T09:44:44.696Z,96.57
2019-02-26T09:45:45.899Z,96.57
2019-02-26T09:46:45.355Z,96.60
2019-02-26T09:47:47.870Z,96.61
2019-02-26T09:48:46.301Z,96.58
2019-02-26T09:49:47.800Z,96.58
2019-02-26T09:50:48.712Z,96.54
2019-02-26T09:51:47.918Z,96.58
2019-02-26T09:52:50.295Z,96.55
2019-02-26T09:53:50.131Z,96.65
2019-02-26T09:54:51.118Z,96.62
2019-02-26T09:55:49.605Z,96.54
2019-02-26T09:56:50.081Z,96.61
2019-02-26T09:57:50.548Z,96.61
2019-02-26T09:58:51.020Z,96.57
2019-02-26T09:59:52.226Z,96.58
2019-02-26T10:00:54.058Z,96.60
2019-02-26T10:01:54.148Z,96.62
2019-02-26T10:02:52.906Z,96.66
2019-02-26T10:03:54.214Z,96.59
2019-02-26T10:04:54.430Z,96.63
2019-02-26T10:05:55.878Z,96.59
2019-02-26T10:06:54.797Z,96.59
2019-02-26T10:07:57.971Z,96.59
2019-02-26T10:08:56.162Z,96.60
2019-02-26T10:09:56.211Z,96.61
2019-02-26T10:10:57.856Z,96.59
2019-02-26T10:11:57.155Z,96.66
2019-02-26T10:12:59.900Z,96.61
2019-02-26T10:13:58.102Z,96.63
2019-02-26T10:15:01.664Z,96.60
2019-02-26T10:16:01.230Z,96.63
2019-02-26T10:16:59.516Z,96.60
2019-02-26T10:18:01.931Z,96.63
2019-02-26T10:19:00.459Z,96.60
2019-02-26T10:20:01.758Z,96.67
2019-02-26T10:21:01.402Z,96.60
2019-02-26T10:22:03.548Z,96.60
2019-02-26T10:23:05.654Z,96.60
2019-02-26T10:24:04.572Z,96.64
2019-02-26T10:25:03.297Z,96.61
2019-02-26T10:26:05.793Z,96.66
2019-02-26T10:27:06.028Z,96.67
2019-02-26T10:28:08.712Z,96.68
2019-02-26T10:29:07.678Z,96.60
2019-02-26T10:30:07.858Z,96.64
2019-02-26T10:31:07.766Z,96.64
2019-02-26T10:32:06.595Z,96.64
2019-02-26T10:33:07.067Z,96.61
2019-02-26T10:34:09.964Z,96.62
2019-02-26T10:35:09.698Z,96.65
2019-02-26T10:36:10.305Z,96.67
2019-02-26T10:37:08.955Z,96.65
2019-02-26T10:38:11.426Z,96.61
2019-02-26T10:39:09.903Z,96.69
2019-02-26T10:40:11.987Z,96.58
2019-02-26T10:41:10.843Z,96.69
2019-02-26T10:42:12.164Z,96.61
2019-02-26T10:43:11.785Z,96.66
2019-02-26T10:44:12.267Z,96.69
2019-02-26T10:45:12.731Z,96.63
2019-02-26T10:46:13.204Z,96.62
2019-02-26T10:47:13.675Z,96.61
2019-02-26T10:48:16.182Z,96.69
2019-02-26T10:49:14.618Z,96.61
2019-02-26T10:50:16.331Z,96.65
2019-02-26T10:51:16.852Z,96.66
2019-02-26T10:52:18.775Z,96.69
2019-02-26T10:53:19.449Z,96.69
2019-02-26T10:54:18.043Z,96.66
2019-02-26T10:55:18.336Z,96.70
2019-02-26T10:56:17.922Z,96.69
2019-02-26T10:57:18.403Z,96.72
2019-02-26T10:58:18.866Z,96.64
2019-02-26T10:59:19.749Z,96.66
2019-02-26T11:00:19.808Z,96.66
2019-02-26T11:01:23.456Z,96.73
2019-02-26T11:02:22.570Z,96.69
2019-02-26T11:03:21.225Z,96.58
2019-02-26T11:04:21.697Z,96.66
2019-02-26T11:05:26.200Z,96.66
2019-02-26T11:06:22.641Z,96.66
2019-02-26T11:07:23.112Z,96.66
2019-02-26T11:08:26.647Z,96.68
2019-02-26T11:09:28.706Z,96.70
2019-02-26T11:10:25.190Z,96.70
2019-02-26T11:11:25.000Z,96.70
2019-02-26T11:12:27.909Z,96.67
2019-02-26T11:13:25.992Z,96.70
2019-02-26T11:14:26.416Z,96.66
2019-02-26T11:15:30.223Z,96.67
2019-02-26T11:16:28.059Z,96.67
2019-02-26T11:17:28.983Z,96.67
2019-02-26T11:18:28.305Z,96.67
2019-02-26T11:19:33.264Z,96.71
2019-02-26T11:20:30.841Z,96.67
2019-02-26T11:21:29.729Z,96.67
2019-02-26T11:22:30.245Z,96.67
2019-02-26T11:23:32.060Z,96.71
2019-02-26T11:24:33.508Z,96.71
2019-02-26T11:25:31.608Z,96.71
2019-02-26T11:26:32.464Z,96.70
2019-02-26T11:27:32.551Z,96.68
2019-02-26T11:28:37.907Z,96.69
2019-02-26T11:29:35.847Z,96.72
2019-02-26T11:30:33.968Z,96.72
2019-02-26T11:31:36.154Z,96.69
2019-02-26T11:32:37.951Z,96.74
2019-02-26T11:33:35.385Z,96.69
2019-02-26T11:34:38.244Z,96.69
2019-02-26T11:35:36.327Z,96.72
2019-02-26T11:36:40.513Z,96.69
2019-02-26T11:37:37.270Z,96.69
2019-02-26T11:38:40.206Z,96.70
2019-02-26T11:39:38.214Z,96.71
2019-02-26T11:40:38.688Z,96.69
2019-02-26T11:41:39.159Z,96.75
2019-02-26T11:42:39.999Z,96.69
2019-02-26T11:43:40.106Z,96.74
2019-02-26T11:44:40.575Z,96.73
2019-02-26T11:45:41.969Z,96.70
2019-02-26T11:46:43.796Z,96.70
2019-02-26T11:47:43.756Z,96.72
2019-02-26T11:48:42.461Z,96.74
2019-02-26T11:49:44.298Z,96.70
2019-02-26T11:50:44.675Z,96.78
2019-02-26T11:51:43.886Z,96.70
2019-02-26T11:52:44.349Z,96.75
2019-02-26T11:53:45.876Z,96.71
2019-02-26T11:54:45.298Z,96.75
2019-02-26T11:55:45.765Z,96.75
2019-02-26T11:56:47.407Z,96.75
2019-02-26T11:57:47.916Z,96.75
2019-02-26T11:58:47.182Z,96.73
2019-02-26T11:59:47.650Z,96.75
2019-02-26T12:00:50.669Z,96.72
2019-02-26T12:01:48.597Z,96.75
2019-02-26T12:02:49.070Z,96.75
2019-02-26T12:03:49.541Z,96.76
2019-02-26T12:04:50.012Z,96.73
2019-02-26T12:05:50.487Z,96.75
2019-02-26T12:06:50.957Z,96.76
2019-02-26T12:07:51.948Z,96.76
2019-02-26T12:08:51.901Z,96.76
2019-02-26T12:09:52.372Z,96.76
2019-02-26T12:10:57.520Z,96.76
2019-02-26T12:11:53.315Z,96.76
2019-02-26T12:12:54.604Z,96.77
2019-02-26T12:13:54.260Z,96.75
2019-02-26T12:14:54.731Z,96.76
2019-02-26T12:15:55.203Z,96.77
2019-02-26T12:16:55.676Z,96.76
2019-02-26T12:17:56.878Z,96.77
2019-02-26T12:18:58.682Z,96.73
2019-02-26T12:19:57.971Z,96.76
2019-02-26T12:20:57.561Z,96.77
2019-02-26T12:22:00.798Z,96.77
2019-02-26T12:22:58.506Z,96.77
2019-02-26T12:24:01.505Z,96.77
2019-02-26T12:25:01.842Z,96.77
2019-02-26T12:26:02.060Z,96.81
2019-02-26T12:27:00.393Z,96.77
2019-02-26T12:28:02.897Z,96.77
2019-02-26T12:29:02.132Z,96.77
2019-02-26T12:30:01.809Z,96.77
2019-02-26T12:31:04.140Z,96.77
2019-02-26T12:32:04.751Z,96.77
2019-02-26T12:33:03.225Z,96.77
2019-02-26T12:34:03.696Z,96.77
2019-02-26T12:35:05.894Z,96.77
2019-02-26T12:36:06.718Z,96.76
2019-02-26T12:37:06.695Z,96.77
2019-02-26T12:38:17.238Z,96.77
2019-02-26T12:39:06.055Z,96.74
2019-02-26T12:40:06.526Z,96.77
2019-02-26T12:42:10.480Z,96.78
2019-02-26T12:43:11.072Z,96.78
2019-02-26T12:44:10.856Z,96.80
2019-02-26T12:45:10.017Z,96.78
2019-02-26T12:46:09.359Z,96.75
2019-02-26T12:47:12.015Z,96.78
2019-02-26T12:48:13.281Z,96.79
2019-02-26T12:49:12.645Z,96.82
2019-02-26T12:50:11.657Z,96.78
2019-02-26T12:51:11.720Z,96.79
2019-02-26T12:52:12.192Z,96.78
2019-02-26T12:53:15.417Z,96.79
2019-02-26T12:54:15.560Z,96.78
2019-02-26T12:55:13.605Z,96.78
2019-02-26T12:56:14.081Z,96.79
2019-02-26T12:57:16.984Z,96.78
2019-02-26T12:58:17.640Z,96.79
2019-02-26T12:59:15.832Z,96.79